sensor_id;sensor_type;location;lat;lon;timestamp;pressure;altitude;pressure_sealevel;temperature;humidity
61674;BME280;47573;43.832;5.974;2022-11-18T00:04:59;94030.03;;;22.33;71.00
61674;BME280;47573;43.832;5.974;2022-11-18T00:09:59;94013.72;;;22.33;71.08
61674;BME280;47573;43.832;5.974;2022-11-18T00:15:01;94013.72;;;22.33;70.83
61674;BME280;47573;43.832;5.974;2022-11-18T00:20:02;93970.75;;;22.30;71.10
61674;BME280;47573;43.832;5.974;2022-11-18T00:25:03;93952.81;;;22.29;70.79
61674;BME280;47573;43.832;5.974;2022-11-18T00:30:06;93951.72;;;22.25;70.94
61674;BME280;47573;43.832;5.974;2022-11-18T00:35:08;93948.44;;;22.23;70.81
61674;BME280;47573;43.832;5.974;2022-11-18T00:40:09;93970.19;;;22.23;71.00
61674;BME280;47573;43.832;5.974;2022-11-18T00:45:11;93976.19;;;22.20;70.79
61674;BME280;47573;43.832;5.974;2022-11-18T00:50:12;93956.88;;;22.12;71.07
61674;BME280;47573;43.832;5.974;2022-11-18T00:55:12;93958.78;;;22.16;70.72
61674;BME280;47573;43.832;5.974;2022-11-18T01:00:15;93947.91;;;22.11;70.86
61674;BME280;47573;43.832;5.974;2022-11-18T01:05:16;93938.66;;;22.07;70.61
61674;BME280;47573;43.832;5.974;2022-11-18T01:10:16;93948.69;;;22.07;70.82
61674;BME280;47573;43.832;5.974;2022-11-18T01:15:18;93952.78;;;22.04;70.85
61674;BME280;47573;43.832;5.974;2022-11-18T01:20:18;93963.09;;;22.02;70.59
61674;BME280;47573;43.832;5.974;2022-11-18T01:25:19;93954.41;;;22.00;70.79
61674;BME280;47573;43.832;5.974;2022-11-18T01:30:21;93954.94;;;21.97;70.89
61674;BME280;47573;43.832;5.974;2022-11-18T01:35:22;93962.56;;;21.95;70.99
61674;BME280;47573;43.832;5.974;2022-11-18T01:40:22;93967.72;;;21.92;70.88
61674;BME280;47573;43.832;5.974;2022-11-18T01:45:31;93959.03;;;21.90;70.65
61674;BME280;47573;43.832;5.974;2022-11-18T01:50:34;93962.00;;;21.88;70.91
61674;BME280;47573;43.832;5.974;2022-11-18T01:55:40;93952.75;;;21.84;70.79
61674;BME280;47573;43.832;5.974;2022-11-18T02:00:44;93959.28;;;21.83;70.90
61674;BME280;47573;43.832;5.974;2022-11-18T02:05:46;93957.06;;;21.80;70.96
61674;BME280;47573;43.832;5.974;2022-11-18T02:10:48;93971.19;;;21.77;70.92
61674;BME280;47573;43.832;5.974;2022-11-18T02:15:58;93960.84;;;21.74;71.01
61674;BME280;47573;43.832;5.974;2022-11-18T02:21:11;93964.63;;;21.73;71.08
61674;BME280;47573;43.832;5.974;2022-11-18T02:26:32;93963.53;;;21.69;71.11
61674;BME280;47573;43.832;5.974;2022-11-18T02:31:44;93963.53;;;21.69;70.83
61674;BME280;47573;43.832;5.974;2022-11-18T02:36:50;93951.59;;;21.70;71.06
61674;BME280;47573;43.832;5.974;2022-11-18T02:41:54;93956.47;;;21.68;70.94
61674;BME280;47573;43.832;5.974;2022-11-18T02:47:00;93949.41;;;21.67;70.87
61674;BME280;47573;43.832;5.974;2022-11-18T02:52:04;93929.84;;;21.65;70.93
61674;BME280;47573;43.832;5.974;2022-11-18T02:57:06;93931.22;;;21.63;70.92
61674;BME280;47573;43.832;5.974;2022-11-18T03:02:11;93928.75;;;21.61;70.80
61674;BME280;47573;43.832;5.974;2022-11-18T03:07:18;93929.31;;;21.58;70.98
61674;BME280;47573;43.832;5.974;2022-11-18T03:12:29;93926.03;;;21.56;70.62
61674;BME280;47573;43.832;5.974;2022-11-18T03:17:44;93939.84;;;21.54;70.62
61674;BME280;47573;43.832;5.974;2022-11-18T03:22:51;93942.31;;;21.56;70.65
61674;BME280;47573;43.832;5.974;2022-11-18T03:27:55;93947.75;;;21.56;70.57
61674;BME280;47573;43.832;5.974;2022-11-18T03:33:04;93956.69;;;21.51;70.90
61674;BME280;47573;43.832;5.974;2022-11-18T03:38:10;93951.00;;;21.48;70.97
61674;BME280;47573;43.832;5.974;2022-11-18T03:43:15;93949.34;;;21.47;70.84
61674;BME280;47573;43.832;5.974;2022-11-18T03:48:21;93960.75;;;21.44;71.07
61674;BME280;47573;43.832;5.974;2022-11-18T03:53:26;93953.69;;;21.43;70.92
61674;BME280;47573;43.832;5.974;2022-11-18T03:58:33;93950.16;;;21.42;70.64
61674;BME280;47573;43.832;5.974;2022-11-18T04:03:36;93961.28;;;21.41;70.73
61674;BME280;47573;43.832;5.974;2022-11-18T04:08:39;93959.06;;;21.38;70.60
61674;BME280;47573;43.832;5.974;2022-11-18T04:13:41;93970.22;;;21.36;70.87
61674;BME280;47573;43.832;5.974;2022-11-18T04:18:43;93966.66;;;21.36;70.87
61674;BME280;47573;43.832;5.974;2022-11-18T04:23:44;93968.28;;;21.32;71.07
61674;BME280;47573;43.832;5.974;2022-11-18T04:28:44;93979.16;;;21.32;70.70
61674;BME280;47573;43.832;5.974;2022-11-18T04:33:46;93985.13;;;21.29;70.98
61674;BME280;47573;43.832;5.974;2022-11-18T04:38:46;93990.56;;;21.29;70.88
61674;BME280;47573;43.832;5.974;2022-11-18T04:43:47;93987.28;;;21.27;70.67
61674;BME280;47573;43.832;5.974;2022-11-18T04:48:49;93978.59;;;21.25;70.65
61674;BME280;47573;43.832;5.974;2022-11-18T04:53:49;93985.06;;;21.19;70.84
61674;BME280;47573;43.832;5.974;2022-11-18T04:58:49;93979.09;;;21.17;70.91
61674;BME280;47573;43.832;5.974;2022-11-18T05:03:51;93970.94;;;21.17;70.69
61674;BME280;47573;43.832;5.974;2022-11-18T05:08:52;93976.06;;;21.13;70.90
61674;BME280;47573;43.832;5.974;2022-11-18T05:13:53;93982.88;;;21.11;70.86
61674;BME280;47573;43.832;5.974;2022-11-18T05:18:54;94002.94;;;21.10;70.94
61674;BME280;47573;43.832;5.974;2022-11-18T05:23:55;94005.63;;;21.10;70.79
61674;BME280;47573;43.832;5.974;2022-11-18T05:28:55;94007.25;;;21.06;70.94
61674;BME280;47573;43.832;5.974;2022-11-18T05:33:57;94009.41;;;21.04;70.85
61674;BME280;47573;43.832;5.974;2022-11-18T05:38:58;94015.91;;;21.03;71.00
61674;BME280;47573;43.832;5.974;2022-11-18T05:43:59;94019.13;;;21.00;70.90
61674;BME280;47573;43.832;5.974;2022-11-18T05:49:01;94019.63;;;20.97;70.80
61674;BME280;47573;43.832;5.974;2022-11-18T05:54:03;94031.84;;;20.94;70.98
61674;BME280;47573;43.832;5.974;2022-11-18T05:59:04;94039.97;;;20.94;70.84
61674;BME280;47573;43.832;5.974;2022-11-18T06:04:09;94039.94;;;20.89;70.97
61674;BME280;47573;43.832;5.974;2022-11-18T06:09:14;94044.53;;;20.89;70.96
61674;BME280;47573;43.832;5.974;2022-11-18T06:14:19;94066.25;;;20.89;70.85
61674;BME280;47573;43.832;5.974;2022-11-18T06:19:23;94080.34;;;20.86;70.85
61674;BME280;47573;43.832;5.974;2022-11-18T06:24:24;94072.72;;;20.82;70.92
61674;BME280;47573;43.832;5.974;2022-11-18T06:29:25;94074.34;;;20.83;70.84
61674;BME280;47573;43.832;5.974;2022-11-18T06:34:28;94084.66;;;20.81;70.84
61674;BME280;47573;43.832;5.974;2022-11-18T06:39:29;94085.22;;;20.83;70.80
61674;BME280;47573;43.832;5.974;2022-11-18T06:44:29;94081.94;;;20.81;70.83
61674;BME280;47573;43.832;5.974;2022-11-18T06:49:31;94087.88;;;20.78;70.98
61674;BME280;47573;43.832;5.974;2022-11-18T06:54:31;94096.06;;;20.83;71.00
61674;BME280;47573;43.832;5.974;2022-11-18T06:59:32;94097.97;;;20.88;70.51
61674;BME280;47573;43.832;5.974;2022-11-18T07:04:34;94108.59;;;20.95;70.34
61674;BME280;47573;43.832;5.974;2022-11-18T07:09:34;94112.66;;;20.92;70.49
61674;BME280;47573;43.832;5.974;2022-11-18T07:14:35;94127.09;;;20.98;69.97
61674;BME280;47573;43.832;5.974;2022-11-18T07:19:37;94124.38;;;20.98;69.98
61674;BME280;47573;43.832;5.974;2022-11-18T07:24:38;94136.34;;;21.02;69.78
61674;BME280;47573;43.832;5.974;2022-11-18T07:29:38;94136.94;;;21.04;69.66
61674;BME280;47573;43.832;5.974;2022-11-18T07:34:40;94124.69;;;21.01;69.54
61674;BME280;47573;43.832;5.974;2022-11-18T07:39:40;94137.22;;;21.02;69.38
61674;BME280;47573;43.832;5.974;2022-11-18T07:44:41;94157.25;;;21.01;69.52
61674;BME280;47573;43.832;5.974;2022-11-18T07:49:43;94170.56;;;21.03;69.32
61674;BME280;47573;43.832;5.974;2022-11-18T07:54:43;94176.50;;;21.00;69.52
61674;BME280;47573;43.832;5.974;2022-11-18T07:59:44;94182.25;;;21.03;69.40
61674;BME280;47573;43.832;5.974;2022-11-18T08:04:45;94191.78;;;21.06;69.21
61674;BME280;47573;43.832;5.974;2022-11-18T08:09:46;94191.50;;;21.07;69.23
61674;BME280;47573;43.832;5.974;2022-11-18T08:14:46;94190.75;;;21.12;69.01
61674;BME280;47573;43.832;5.974;2022-11-18T08:19:48;94209.75;;;21.12;68.99
61674;BME280;47573;43.832;5.974;2022-11-18T08:24:49;94211.13;;;21.14;68.80
61674;BME280;47573;43.832;5.974;2022-11-18T08:29:49;94213.88;;;21.19;68.46
61674;BME280;47573;43.832;5.974;2022-11-18T08:34:51;94222.06;;;21.24;68.47
61674;BME280;47573;43.832;5.974;2022-11-18T08:39:51;94230.59;;;20.36;56.16
61674;BME280;47573;43.832;5.974;2022-11-18T08:44:52;94225.59;;;19.52;53.85
61674;BME280;47573;43.832;5.974;2022-11-18T08:49:54;94231.59;;;19.54;54.74
61674;BME280;47573;43.832;5.974;2022-11-18T08:54:54;94223.16;;;19.34;53.25
61674;BME280;47573;43.832;5.974;2022-11-18T08:59:55;94226.66;;;19.17;52.06
61674;BME280;47573;43.832;5.974;2022-11-18T09:04:57;94223.63;;;19.31;52.99
61674;BME280;47573;43.832;5.974;2022-11-18T09:09:57;94216.47;;;19.24;51.92
61674;BME280;47573;43.832;5.974;2022-11-18T09:14:57;94217.50;;;19.35;53.91
61674;BME280;47573;43.832;5.974;2022-11-18T09:19:59;94216.50;;;19.41;53.85
61674;BME280;47573;43.832;5.974;2022-11-18T09:25:00;94209.63;;;19.50;52.38
61674;BME280;47573;43.832;5.974;2022-11-18T09:30:00;94209.47;;;19.57;53.30
61674;BME280;47573;43.832;5.974;2022-11-18T09:35:02;94208.94;;;19.60;53.57
61674;BME280;47573;43.832;5.974;2022-11-18T09:40:04;94207.41;;;20.45;56.22
61674;BME280;47573;43.832;5.974;2022-11-18T09:45:12;94203.00;;;20.93;56.79
61674;BME280;47573;43.832;5.974;2022-11-18T09:50:19;94198.88;;;21.12;56.89
61674;BME280;47573;43.832;5.974;2022-11-18T09:55:20;94200.09;;;21.26;57.01
61674;BME280;47573;43.832;5.974;2022-11-18T10:00:23;94188.25;;;21.37;57.21
61674;BME280;47573;43.832;5.974;2022-11-18T10:05:26;94185.34;;;21.48;57.10
61674;BME280;47573;43.832;5.974;2022-11-18T10:10:35;94184.25;;;21.49;57.65
61674;BME280;47573;43.832;5.974;2022-11-18T10:15:46;94174.78;;;21.52;57.75
61674;BME280;47573;43.832;5.974;2022-11-18T10:20:58;94181.88;;;21.58;57.98
61674;BME280;47573;43.832;5.974;2022-11-18T10:26:00;94183.56;;;21.64;58.10
61674;BME280;47573;43.832;5.974;2022-11-18T10:31:05;94170.25;;;21.68;58.00
61674;BME280;47573;43.832;5.974;2022-11-18T10:36:18;94160.78;;;21.70;58.47
61674;BME280;47573;43.832;5.974;2022-11-18T10:41:24;94156.41;;;21.69;58.89
61674;BME280;47573;43.832;5.974;2022-11-18T10:46:26;94134.19;;;21.77;58.88
61674;BME280;47573;43.832;5.974;2022-11-18T10:51:29;94120.38;;;21.84;58.82
61674;BME280;47573;43.832;5.974;2022-11-18T10:56:43;94126.13;;;21.92;56.02
61674;BME280;47573;43.832;5.974;2022-11-18T11:01:56;94123.41;;;21.87;58.89
61674;BME280;47573;43.832;5.974;2022-11-18T11:07:13;94110.91;;;21.91;59.00
61674;BME280;47573;43.832;5.974;2022-11-18T11:12:15;94132.16;;;21.99;59.29
61674;BME280;47573;43.832;5.974;2022-11-18T11:17:20;94121.56;;;22.03;59.14
61674;BME280;47573;43.832;5.974;2022-11-18T11:22:23;94116.44;;;22.06;59.44
61674;BME280;47573;43.832;5.974;2022-11-18T11:27:35;94110.44;;;22.09;59.41
61674;BME280;47573;43.832;5.974;2022-11-18T11:38:34;94106.66;;;22.15;59.48
61674;BME280;47573;43.832;5.974;2022-11-18T11:43:46;94082.19;;;22.15;59.85
61674;BME280;47573;43.832;5.974;2022-11-18T11:48:55;94076.22;;;22.18;60.02
61674;BME280;47573;43.832;5.974;2022-11-18T11:54:14;94070.78;;;22.18;60.08
61674;BME280;47573;43.832;5.974;2022-11-18T11:59:24;94062.09;;;22.21;59.87
61674;BME280;47573;43.832;5.974;2022-11-18T12:04:35;94058.84;;;22.29;59.93
61674;BME280;47573;43.832;5.974;2022-11-18T12:09:50;94058.84;;;22.24;60.44
61674;BME280;47573;43.832;5.974;2022-11-18T12:14:56;94051.25;;;22.26;60.30
61674;BME280;47573;43.832;5.974;2022-11-18T12:20:34;94045.25;;;22.29;60.59
61674;BME280;47573;43.832;5.974;2022-11-18T12:26:01;94034.38;;;22.29;60.60
61674;BME280;47573;43.832;5.974;2022-11-18T12:36:40;94017.28;;;22.39;60.54
61674;BME280;47573;43.832;5.974;2022-11-18T12:41:53;94017.00;;;22.46;60.56
61674;BME280;47573;43.832;5.974;2022-11-18T12:46:54;94020.28;;;22.63;59.58
61674;BME280;47573;43.832;5.974;2022-11-18T12:51:56;94010.47;;;22.52;60.54
61674;BME280;47573;43.832;5.974;2022-11-18T12:57:00;94021.41;;;22.62;60.18
61674;BME280;47573;43.832;5.974;2022-11-18T13:02:19;94017.03;;;22.66;60.18
61674;BME280;47573;43.832;5.974;2022-11-18T13:07:20;93996.91;;;22.62;60.54
61674;BME280;47573;43.832;5.974;2022-11-18T13:12:25;93983.31;;;22.62;60.72
61674;BME280;47573;43.832;5.974;2022-11-18T13:17:28;94009.38;;;22.58;61.01
61674;BME280;47573;43.832;5.974;2022-11-18T13:22:29;93991.41;;;22.57;61.17
61674;BME280;47573;43.832;5.974;2022-11-18T13:27:40;93987.63;;;22.58;61.01
61674;BME280;47573;43.832;5.974;2022-11-18T13:32:46;93981.66;;;22.56;61.31
61674;BME280;47573;43.832;5.974;2022-11-18T13:37:49;93982.19;;;22.58;61.41
61674;BME280;47573;43.832;5.974;2022-11-18T13:42:52;93993.88;;;22.48;61.63
61674;BME280;47573;43.832;5.974;2022-11-18T13:47:56;93986.25;;;22.50;61.82
61674;BME280;47573;43.832;5.974;2022-11-18T13:52:59;93990.59;;;22.46;61.86
61674;BME280;47573;43.832;5.974;2022-11-18T13:58:04;93994.44;;;22.45;61.97
61674;BME280;47573;43.832;5.974;2022-11-18T14:03:23;93991.16;;;22.43;62.20
61674;BME280;47573;43.832;5.974;2022-11-18T14:08:27;93980.03;;;22.39;62.67
61674;BME280;47573;43.832;5.974;2022-11-18T14:13:31;93984.34;;;22.40;62.40
61674;BME280;47573;43.832;5.974;2022-11-18T14:18:34;94008.00;;;22.40;62.61
61674;BME280;47573;43.832;5.974;2022-11-18T14:23:35;94001.78;;;22.39;62.57
61674;BME280;47573;43.832;5.974;2022-11-18T14:28:37;93994.69;;;22.38;62.45
61674;BME280;47573;43.832;5.974;2022-11-18T14:33:38;93990.91;;;22.39;62.82
61674;BME280;47573;43.832;5.974;2022-11-18T14:38:43;94006.66;;;22.32;63.10
61674;BME280;47573;43.832;5.974;2022-11-18T14:43:45;94019.16;;;22.33;63.17
61674;BME280;47573;43.832;5.974;2022-11-18T14:48:46;94026.22;;;22.34;63.16
61674;BME280;47573;43.832;5.974;2022-11-18T14:53:46;94022.16;;;22.32;63.21
61674;BME280;47573;43.832;5.974;2022-11-18T14:58:48;94038.47;;;22.32;63.31
61674;BME280;47573;43.832;5.974;2022-11-18T15:03:49;94019.69;;;22.30;63.32
61674;BME280;47573;43.832;5.974;2022-11-18T15:08:51;94044.72;;;22.32;63.23
61674;BME280;47573;43.832;5.974;2022-11-18T15:13:53;94058.88;;;22.34;63.45
61674;BME280;47573;43.832;5.974;2022-11-18T15:18:55;94048.25;;;22.33;63.44
61674;BME280;47573;43.832;5.974;2022-11-18T15:23:55;94042.81;;;22.33;63.22
61674;BME280;47573;43.832;5.974;2022-11-18T15:28:57;94062.09;;;22.31;63.30
61674;BME280;47573;43.832;5.974;2022-11-18T15:33:58;94063.72;;;22.27;63.68
61674;BME280;47573;43.832;5.974;2022-11-18T15:38:58;94056.69;;;22.26;63.39
61674;BME280;47573;43.832;5.974;2022-11-18T15:44:00;94037.38;;;22.23;63.50
61674;BME280;47573;43.832;5.974;2022-11-18T15:49:01;94050.66;;;22.19;64.06
61674;BME280;47573;43.832;5.974;2022-11-18T15:54:01;94050.13;;;22.17;62.60
61674;BME280;47573;43.832;5.974;2022-11-18T15:59:04;94063.44;;;22.14;63.39
61674;BME280;47573;43.832;5.974;2022-11-18T16:04:08;94055.25;;;22.09;64.07
61674;BME280;47573;43.832;5.974;2022-11-18T16:09:09;94063.69;;;22.07;64.24
61674;BME280;47573;43.832;5.974;2022-11-18T16:14:13;94058.78;;;22.04;64.12
61674;BME280;47573;43.832;5.974;2022-11-18T16:19:16;94056.31;;;22.03;64.04
61674;BME280;47573;43.832;5.974;2022-11-18T16:24:17;94072.38;;;21.99;64.21
61674;BME280;47573;43.832;5.974;2022-11-18T16:29:21;94063.66;;;21.97;64.36
61674;BME280;47573;43.832;5.974;2022-11-18T16:34:23;94072.09;;;21.96;64.35
61674;BME280;47573;43.832;5.974;2022-11-18T16:39:25;94069.63;;;21.94;64.28
61674;BME280;47573;43.832;5.974;2022-11-18T16:44:28;94050.88;;;21.93;64.28
61674;BME280;47573;43.832;5.974;2022-11-18T16:49:29;94056.03;;;21.89;64.35
61674;BME280;47573;43.832;5.974;2022-11-18T16:54:30;94061.97;;;21.86;64.47
61674;BME280;47573;43.832;5.974;2022-11-18T16:59:33;94043.50;;;21.83;64.65
61674;BME280;47573;43.832;5.974;2022-11-18T17:04:33;94060.06;;;21.82;64.71
61674;BME280;47573;43.832;5.974;2022-11-18T17:09:34;94052.75;;;21.87;64.37
61674;BME280;47573;43.832;5.974;2022-11-18T17:14:36;94034.31;;;21.99;64.05
61674;BME280;47573;43.832;5.974;2022-11-18T17:19:36;94030.03;;;22.18;64.04
61674;BME280;47573;43.832;5.974;2022-11-18T17:24:37;94028.41;;;22.32;63.74
61674;BME280;47573;43.832;5.974;2022-11-18T17:29:39;94019.19;;;22.44;63.86
61674;BME280;47573;43.832;5.974;2022-11-18T17:34:39;94011.00;;;22.49;64.38
61674;BME280;47573;43.832;5.974;2022-11-18T17:39:40;94007.75;;;22.57;64.08
61674;BME280;47573;43.832;5.974;2022-11-18T17:44:42;94030.88;;;22.54;64.39
61674;BME280;47573;43.832;5.974;2022-11-18T17:49:42;94028.69;;;22.51;64.73
61674;BME280;47573;43.832;5.974;2022-11-18T17:54:43;94019.72;;;22.51;64.71
61674;BME280;47573;43.832;5.974;2022-11-18T17:59:45;94027.31;;;22.49;64.98
61674;BME280;47573;43.832;5.974;2022-11-18T18:04:45;94028.44;;;22.48;65.40
61674;BME280;47573;43.832;5.974;2022-11-18T18:09:46;94038.25;;;22.59;65.17
61674;BME280;47573;43.832;5.974;2022-11-18T18:14:48;94030.63;;;22.61;65.29
61674;BME280;47573;43.832;5.974;2022-11-18T18:19:49;94013.22;;;22.62;65.14
61674;BME280;47573;43.832;5.974;2022-11-18T18:24:50;94012.69;;;22.60;65.72
61674;BME280;47573;43.832;5.974;2022-11-18T18:29:52;94027.91;;;22.66;65.64
61674;BME280;47573;43.832;5.974;2022-11-18T18:34:52;94079.34;;;22.72;65.71
61674;BME280;47573;43.832;5.974;2022-11-18T18:39:52;94095.97;;;22.81;65.69
61674;BME280;47573;43.832;5.974;2022-11-18T18:44:54;94087.78;;;22.86;65.52
61674;BME280;47573;43.832;5.974;2022-11-18T18:49:55;94075.53;;;22.83;65.94
61674;BME280;47573;43.832;5.974;2022-11-18T18:54:55;94098.97;;;22.89;65.52
61674;BME280;47573;43.832;5.974;2022-11-18T18:59:57;94120.19;;;22.92;65.62
61674;BME280;47573;43.832;5.974;2022-11-18T19:04:58;94120.44;;;22.96;65.50
61674;BME280;47573;43.832;5.974;2022-11-18T19:09:58;94109.03;;;22.99;65.95
61674;BME280;47573;43.832;5.974;2022-11-18T19:15:00;94100.31;;;23.07;66.71
61674;BME280;47573;43.832;5.974;2022-11-18T19:20:01;94103.31;;;23.15;68.31
61674;BME280;47573;43.832;5.974;2022-11-18T19:25:01;94083.97;;;23.17;70.06
61674;BME280;47573;43.832;5.974;2022-11-18T19:30:04;94085.06;;;23.11;70.31
61674;BME280;47573;43.832;5.974;2022-11-18T19:35:06;94077.44;;;23.13;71.45
61674;BME280;47573;43.832;5.974;2022-11-18T19:40:07;94083.97;;;23.17;71.35
61674;BME280;47573;43.832;5.974;2022-11-18T19:45:10;94079.88;;;23.14;70.74
61674;BME280;47573;43.832;5.974;2022-11-18T19:50:11;94078.78;;;23.10;71.38
61674;BME280;47573;43.832;5.974;2022-11-18T19:55:11;94087.78;;;23.16;71.36
61674;BME280;47573;43.832;5.974;2022-11-18T20:00:15;94093.78;;;23.13;71.40
61674;BME280;47573;43.832;5.974;2022-11-18T20:05:15;94092.69;;;23.14;71.10
61674;BME280;47573;43.832;5.974;2022-11-18T20:10:16;94088.31;;;23.13;70.93
61674;BME280;47573;43.832;5.974;2022-11-18T20:15:18;94097.59;;;23.12;70.98
61674;BME280;47573;43.832;5.974;2022-11-18T20:20:18;94105.75;;;23.17;70.65
61674;BME280;47573;43.832;5.974;2022-11-18T20:25:19;94098.13;;;23.19;70.75
61674;BME280;47573;43.832;5.974;2022-11-18T20:30:21;94099.50;;;23.27;70.92
61674;BME280;47573;43.832;5.974;2022-11-18T20:35:21;94118.28;;;23.28;71.53
61674;BME280;47573;43.832;5.974;2022-11-18T20:40:22;94115.56;;;23.33;70.82
61674;BME280;47573;43.832;5.974;2022-11-18T20:45:24;94118.28;;;23.33;70.91
61674;BME280;47573;43.832;5.974;2022-11-18T20:50:24;94121.03;;;23.38;70.97
61674;BME280;47573;43.832;5.974;2022-11-18T20:55:25;94127.03;;;23.35;71.18
61674;BME280;47573;43.832;5.974;2022-11-18T21:00:26;94128.09;;;23.34;71.25
61674;BME280;47573;43.832;5.974;2022-11-18T21:05:27;94121.00;;;23.33;71.10
61674;BME280;47573;43.832;5.974;2022-11-18T21:10:27;94123.16;;;23.31;71.11
61674;BME280;47573;43.832;5.974;2022-11-18T21:15:29;94111.47;;;23.31;71.19
61674;BME280;47573;43.832;5.974;2022-11-18T21:20:30;94107.94;;;23.30;70.96
61674;BME280;47573;43.832;5.974;2022-11-18T21:25:31;94103.84;;;23.28;70.94
61674;BME280;47573;43.832;5.974;2022-11-18T21:30:34;94112.28;;;23.31;70.44
61674;BME280;47573;43.832;5.974;2022-11-18T21:35:34;94110.66;;;23.30;70.88
61674;BME280;47573;43.832;5.974;2022-11-18T21:40:35;94110.66;;;23.30;70.63
61674;BME280;47573;43.832;5.974;2022-11-18T21:45:37;94125.88;;;23.31;70.49
61674;BME280;47573;43.832;5.974;2022-11-18T21:50:37;94115.00;;;23.26;70.53
61674;BME280;47573;43.832;5.974;2022-11-18T21:55:37;94117.44;;;23.28;70.47
61674;BME280;47573;43.832;5.974;2022-11-18T22:00:39;94117.44;;;23.28;70.35
61674;BME280;47573;43.832;5.974;2022-11-18T22:05:40;94111.19;;;23.27;70.19
61674;BME280;47573;43.832;5.974;2022-11-18T22:10:44;94093.22;;;23.26;70.24
61674;BME280;47573;43.832;5.974;2022-11-18T22:15:46;94071.97;;;23.23;70.06
61674;BME280;47573;43.832;5.974;2022-11-18T22:20:46;94084.78;;;23.23;70.06
61674;BME280;47573;43.832;5.974;2022-11-18T22:25:46;94107.38;;;23.23;70.00
61674;BME280;47573;43.832;5.974;2022-11-18T22:31:00;94099.78;;;23.20;70.12
61674;BME280;47573;43.832;5.974;2022-11-18T22:36:01;94116.63;;;23.17;69.84
61674;BME280;47573;43.832;5.974;2022-11-18T22:41:04;94101.41;;;23.16;69.76
61674;BME280;47573;43.832;5.974;2022-11-18T22:46:07;94104.13;;;23.11;69.83
61674;BME280;47573;43.832;5.974;2022-11-18T22:51:08;94110.09;;;23.13;70.11
61674;BME280;47573;43.832;5.974;2022-11-18T22:56:10;94109.03;;;23.09;70.00
61674;BME280;47573;43.832;5.974;2022-11-18T23:01:13;94099.78;;;23.10;69.91
61674;BME280;47573;43.832;5.974;2022-11-18T23:06:14;94100.31;;;23.07;70.17
61674;BME280;47573;43.832;5.974;2022-11-18T23:11:16;94092.44;;;23.05;70.23
61674;BME280;47573;43.832;5.974;2022-11-18T23:16:18;94093.50;;;23.04;69.85
61674;BME280;47573;43.832;5.974;2022-11-18T23:21:19;94089.41;;;23.02;69.93
61674;BME280;47573;43.832;5.974;2022-11-18T23:26:20;94081.25;;;23.02;69.94
61674;BME280;47573;43.832;5.974;2022-11-18T23:31:23;94083.44;;;23.05;69.94
61674;BME280;47573;43.832;5.974;2022-11-18T23:36:24;94066.00;;;23.01;69.70
61674;BME280;47573;43.832;5.974;2022-11-18T23:41:25;94051.56;;;23.00;69.78
61674;BME280;47573;43.832;5.974;2022-11-18T23:46:27;94042.59;;;23.00;69.89
61674;BME280;47573;43.832;5.974;2022-11-18T23:51:27;94035.00;;;22.97;69.77
61674;BME280;47573;43.832;5.974;2022-11-18T23:56:28;94027.09;;;22.95;69.67
